Time;durP1;ratioP1;P1;durP2;ratioP2;P2;SDS_P1;SDS_P2;PMS_P1;PMS_P2;Temp;Humidity;BMP_temperature;BMP_pressure;BME280_temperature;BME280_humidity;BME280_pressure;Samples;Min_cycle;Max_cycle;Signal;HPM_P1;HPM_P2
2022/07/27 10:34:05;;;;;;;;;;;;;;;37.82;24.44;99122.56;5453336;23;1648;-63
2022/07/27 10:36:31;;;;;;;;;;;;;;;38.02;24.19;99123.22;4994570;28;827;-62
2022/07/27 10:39:05;;;;;;;;;;;;;;;38.20;24.24;99120.94;4992974;28;1347;-63
2022/07/27 10:41:34;;;;;;;;;;;;;;;38.51;23.67;99126.69;4976718;28;1186;-63
2022/07/27 10:44:16;;;;;;;;;;;;;;;38.52;25.09;99118.81;4976754;28;1205;-62
2022/07/27 10:46:50;;;;;;;;;;;;;;;38.63;25.29;99123.91;4994046;28;1910;-63
2022/07/27 10:49:18;;;;;;;;;;;;;;;38.69;24.87;99123.56;4994201;28;886;-63
2022/07/27 10:51:44;;;;;;;;;;;;;;;38.24;25.44;99126.22;4994164;28;893;-63
2022/07/27 10:54:25;;;;;;;;;;;;;;;37.97;25.25;99130.84;4993928;28;1081;-65
2022/07/27 10:57:00;;;;;;;;;;;;;;;37.97;25.58;99130.09;4993861;28;867;-63
2022/07/27 10:59:47;;;;;;;;;;;;;;;38.19;24.99;99125.91;4993926;28;905;-64
2022/07/27 11:02:15;;;;;;;;;;;;;;;38.17;25.17;99127.91;4993851;28;889;-64
2022/07/27 11:04:49;;;;;;;;;;;;;;;38.39;25.25;99134.50;4993629;28;1914;-64
2022/07/27 11:07:20;;;;;;;;;;;;;;;38.73;24.90;99127.50;4993937;28;815;-63
2022/07/27 11:09:48;;;;;;;;;;;;;;;38.86;24.88;99129.06;4993648;28;814;-64
2022/07/27 11:12:15;;;;;;;;;;;;;;;38.91;24.58;99115.66;4993615;28;846;-64
2022/07/27 11:14:46;;;;;;;;;;;;;;;39.09;24.31;99116.13;4993570;28;811;-64
2022/07/27 11:17:29;;;;;;;;;;;;;;;39.23;24.34;99122.13;4992471;28;870;-63
2022/07/27 11:20:00;;;;;;;;;;;;;;;39.14;24.26;99118.69;4993475;28;792;-64
2022/07/27 11:22:41;;;;;;;;;;;;;;;39.12;24.02;99115.66;4993451;28;799;-63
2022/07/27 11:25:08;;;;;;;;;;;;;;;39.18;24.28;99118.94;4993471;28;1878;-64
2022/07/27 11:27:48;;;;;;;;;;;;;;;39.35;24.01;99120.78;4993249;28;969;-64
2022/07/27 11:30:24;;;;;;;;;;;;;;;39.45;23.81;99123.59;4993517;28;866;-64
2022/07/27 11:36:04;;;;;;;;;;;;;;;39.20;23.67;99116.19;4969285;28;1265;-64
2022/07/27 11:48:15;;;;;;;;;;;;;;;38.93;24.51;99116.53;4973099;28;650;-65
2022/07/27 11:50:57;;;;;;;;;;;;;;;38.96;24.46;99109.56;4972717;28;842;-66
2022/07/27 11:53:28;;;;;;;;;;;;;;;39.25;24.20;99102.78;4972853;28;1198;-65
2022/07/27 11:59:09;;;;;;;;;;;;;;;39.65;24.01;99109.69;4972931;28;645;-64
2022/07/27 12:01:38;;;;;;;;;;;;;;;39.83;23.94;99110.09;4972455;28;843;-63
2022/07/27 12:04:17;;;;;;;;;;;;;;;39.95;23.69;99110.91;4972651;28;855;-64
2022/07/27 12:06:45;;;;;;;;;;;;;;;40.18;23.46;99103.59;4972650;28;1894;-64
2022/07/27 12:09:25;;;;;;;;;;;;;;;40.36;23.21;99104.75;4972431;28;816;-63
2022/07/27 12:12:10;;;;;;;;;;;;;;;40.16;22.95;99104.25;4972439;28;866;-63
2022/07/27 12:14:38;;;;;;;;;;;;;;;40.27;23.24;99096.94;4972379;28;851;-64
2022/07/27 12:17:26;;;;;;;;;;;;;;;40.52;22.61;99099.22;4972344;28;833;-64
2022/07/27 12:32:04;;;;;;;;;;;;;;;40.30;22.84;99104.38;4972075;28;934;-63
2022/07/27 12:34:34;;;;;;;;;;;;;;;40.38;23.39;99093.31;4869379;28;3213382;-64
2022/07/27 12:37:10;;;;;;;;;;;;;;;40.48;23.23;99098.97;4992237;28;885;-64
2022/07/27 12:39:37;;;;;;;;;;;;;;;40.20;23.59;99100.81;4992883;28;767;-64
2022/07/27 12:42:08;;;;;;;;;;;;;;;39.89;23.58;99096.06;4992592;28;827;-63
2022/07/27 12:44:37;;;;;;;;;;;;;;;39.69;24.38;99095.50;4992116;28;2009;-64
2022/07/27 12:50:20;;;;;;;;;;;;;;;39.83;24.29;99092.00;4992449;28;618;-64
2022/07/27 12:52:49;;;;;;;;;;;;;;;39.86;24.07;99096.53;4980720;28;1284;-64
2022/07/27 12:55:22;;;;;;;;;;;;;;;39.82;24.17;99099.94;4974644;28;1335;-65
2022/07/27 12:57:49;;;;;;;;;;;;;;;39.76;23.86;99094.50;4992620;28;747;-64
2022/07/27 13:00:25;;;;;;;;;;;;;;;39.83;23.92;99089.84;4992057;28;863;-67
2022/07/27 13:02:51;;;;;;;;;;;;;;;39.81;24.04;99086.84;4992064;28;819;-64
2022/07/27 13:05:18;;;;;;;;;;;;;;;39.89;24.02;99078.69;4991941;28;1890;-64
2022/07/27 13:07:47;;;;;;;;;;;;;;;40.15;24.16;99084.59;4974448;28;823;-65
2022/07/27 13:10:18;;;;;;;;;;;;;;;40.37;23.51;99086.00;4991964;28;819;-64
2022/07/27 13:12:46;;;;;;;;;;;;;;;40.42;23.52;99089.91;4991923;28;870;-65
2022/07/27 13:27:29;;;;;;;;;;;;;;;40.01;23.88;99093.19;4992087;28;626;-64
2022/07/27 13:29:56;;;;;;;;;;;;;;;39.95;23.61;99095.69;4991937;28;810;-63
2022/07/27 13:32:24;;;;;;;;;;;;;;;39.91;23.72;99095.44;4991797;28;1017;-64
2022/07/27 13:35:07;;;;;;;;;;;;;;;39.53;24.19;99094.47;4991526;28;1123;-65
2022/07/27 13:37:36;;;;;;;;;;;;;;;39.27;24.76;99093.47;4991831;28;886;-64
2022/07/27 13:43:09;;;;;;;;;;;;;;;38.88;24.92;99085.88;4995381;28;708;-64
2022/07/27 13:45:35;;;;;;;;;;;;;;;38.89;25.16;99086.63;4995211;28;1910;-64
2022/07/27 13:48:01;;;;;;;;;;;;;;;39.06;25.17;99092.13;4995169;28;929;-64
2022/07/27 13:50:28;;;;;;;;;;;;;;;39.30;24.82;99092.22;4995182;28;912;-64
2022/07/27 13:52:54;;;;;;;;;;;;;;;39.24;24.61;99086.03;4995059;28;866;-64
2022/07/27 14:04:49;;;;;;;;;;;;;;;38.40;26.55;99069.63;4995209;28;610;-65
2022/07/27 14:07:35;;;;;;;;;;;;;;;38.31;26.87;99067.56;4934849;29;1078;-66
2022/07/27 14:12:46;;;;;;;;;;;;;;;38.46;27.24;99069.31;4935182;29;945;-64
2022/07/27 14:24:29;;;;;;;;;;;;;;;37.96;27.51;99068.00;4934614;29;971;-65
2022/07/27 14:27:16;;;;;;;;;;;;;;;37.87;27.19;99068.81;4915487;29;1045;-64
2022/07/27 14:29:42;;;;;;;;;;;;;;;37.70;27.41;99067.66;4915426;29;946;-63
2022/07/27 14:32:09;;;;;;;;;;;;;;;37.42;28.00;99069.22;4915298;29;1107;-63
2022/07/27 14:34:36;;;;;;;;;;;;;;;36.81;28.38;99067.56;4915390;29;1413;-64
2022/07/27 14:37:02;;;;;;;;;;;;;;;36.39;29.54;99063.72;4915414;29;863;-64
2022/07/27 14:39:29;;;;;;;;;;;;;;;36.05;29.59;99068.28;4915340;29;911;-64
2022/07/27 14:41:55;;;;;;;;;;;;;;;35.48;30.47;99072.38;4915343;29;792;-64
2022/07/27 14:44:23;;;;;;;;;;;;;;;35.12;30.95;99068.03;4928704;29;1048;-64
2022/07/27 14:46:52;;;;;;;;;;;;;;;35.06;31.53;99067.53;4953287;29;1985;-63
2022/07/27 14:49:20;;;;;;;;;;;;;;;34.97;31.69;99068.97;4953316;29;820;-65
2022/07/27 14:51:48;;;;;;;;;;;;;;;34.95;30.88;99065.94;4952904;28;1036;-63
2022/07/27 14:54:27;;;;;;;;;;;;;;;34.72;30.98;99072.69;4953266;29;927;-64
2022/07/27 14:56:53;;;;;;;;;;;;;;;34.64;31.57;99068.41;4953082;29;929;-64
2022/07/27 14:59:19;;;;;;;;;;;;;;;34.60;31.63;99073.75;4953019;29;922;-65
2022/07/27 15:01:46;;;;;;;;;;;;;;;34.63;31.94;99067.63;4953025;29;819;-63
2022/07/27 15:04:13;;;;;;;;;;;;;;;34.55;31.72;99072.66;4971244;28;1058;-64
2022/07/27 15:06:39;;;;;;;;;;;;;;;34.39;31.77;99065.53;4993683;28;1981;-66
2022/07/27 15:09:06;;;;;;;;;;;;;;;34.19;31.87;99065.34;4993806;28;839;-63
2022/07/27 15:11:38;;;;;;;;;;;;;;;34.06;32.35;99069.25;4993887;28;796;-64
2022/07/27 15:14:04;;;;;;;;;;;;;;;33.97;32.73;99082.09;4993604;28;822;-64
2022/07/27 15:16:31;;;;;;;;;;;;;;;33.95;32.26;99076.19;4976128;28;1162;-63
2022/07/27 15:18:58;;;;;;;;;;;;;;;34.12;32.62;99075.53;4993479;28;870;-64
2022/07/27 15:21:24;;;;;;;;;;;;;;;34.33;32.37;99078.03;4993806;28;808;-64
2022/07/27 15:23:51;;;;;;;;;;;;;;;34.08;32.40;99083.00;4993363;28;788;-63
2022/07/27 15:26:19;;;;;;;;;;;;;;;33.70;32.97;99081.16;4975797;28;2212;-64
2022/07/27 15:28:46;;;;;;;;;;;;;;;33.81;32.88;99077.81;4993404;28;882;-64
2022/07/27 15:31:13;;;;;;;;;;;;;;;33.88;33.24;99077.00;4993330;28;812;-64
2022/07/27 15:33:39;;;;;;;;;;;;;;;33.75;32.89;99075.19;4993355;28;1283;-64
2022/07/27 15:36:08;;;;;;;;;;;;;;;33.64;32.50;99075.63;4993238;28;791;-65
2022/07/27 15:38:35;;;;;;;;;;;;;;;33.53;32.63;99087.53;4993111;28;882;-64
2022/07/27 15:41:04;;;;;;;;;;;;;;;33.38;32.82;99082.63;4993104;28;808;-64
2022/07/27 15:55:42;;;;;;;;;;;;;;;31.28;36.49;99091.00;4993154;28;684;-64
2022/07/27 15:58:09;;;;;;;;;;;;;;;31.02;36.83;99092.00;4992785;28;823;-64
2022/07/27 16:00:36;;;;;;;;;;;;;;;30.84;37.03;99093.78;4992821;28;958;-64
2022/07/27 16:03:04;;;;;;;;;;;;;;;30.79;37.52;99091.88;4992106;28;842;-64
2022/07/27 16:05:30;;;;;;;;;;;;;;;30.72;37.78;99081.91;4992615;28;1898;-64
2022/07/27 16:07:57;;;;;;;;;;;;;;;30.60;38.41;99094.19;4975149;28;869;-64
2022/07/27 16:10:24;;;;;;;;;;;;;;;30.46;39.05;99102.09;4992895;28;806;-64
2022/07/27 16:12:50;;;;;;;;;;;;;;;30.29;39.69;99105.38;4992832;28;894;-64
2022/07/27 16:15:17;;;;;;;;;;;;;;;30.21;39.90;99105.28;4992574;28;850;-64
2022/07/27 16:17:44;;;;;;;;;;;;;;;30.04;39.87;99102.88;4992502;28;847;-64
2022/07/27 16:20:10;;;;;;;;;;;;;;;29.89;40.10;99109.19;4992458;28;810;-64
2022/07/27 16:22:38;;;;;;;;;;;;;;;29.75;40.44;99112.63;4992608;28;838;-64
2022/07/27 16:25:05;;;;;;;;;;;;;;;29.55;41.28;99105.53;4992597;28;1941;-64
2022/07/27 16:27:31;;;;;;;;;;;;;;;29.42;41.27;99109.94;4974827;28;1199;-64
2022/07/27 16:29:58;;;;;;;;;;;;;;;29.38;41.50;99109.53;4974954;28;1368;-65
2022/07/27 16:32:25;;;;;;;;;;;;;;;29.27;42.03;99110.53;4992315;28;1008;-64
2022/07/27 16:34:51;;;;;;;;;;;;;;;29.15;41.59;99117.00;4992151;28;1418;-64
2022/07/27 16:37:18;;;;;;;;;;;;;;;28.99;41.99;99107.47;4992441;28;835;-64
2022/07/27 16:39:44;;;;;;;;;;;;;;;28.85;42.28;99106.72;4992398;28;870;-64
2022/07/27 16:42:11;;;;;;;;;;;;;;;28.72;42.69;99101.81;4992459;28;823;-64
2022/07/27 16:44:40;;;;;;;;;;;;;;;28.56;43.61;99102.88;4992520;28;798;-64
2022/07/27 16:47:08;;;;;;;;;;;;;;;28.35;43.59;99114.06;4992188;28;1910;-63
2022/07/27 16:49:34;;;;;;;;;;;;;;;28.22;44.09;99106.28;4992129;28;803;-63
2022/07/27 16:52:02;;;;;;;;;;;;;;;28.08;44.26;99114.78;4992102;28;823;-63
2022/07/27 16:54:29;;;;;;;;;;;;;;;27.93;44.61;99113.72;4974611;28;1384;-63
2022/07/27 16:56:56;;;;;;;;;;;;;;;27.79;44.65;99116.47;4992045;28;910;-63
2022/07/27 16:59:22;;;;;;;;;;;;;;;27.69;45.03;99118.16;4992064;28;863;-63
2022/07/27 17:01:51;;;;;;;;;;;;;;;27.54;45.53;99117.88;4991962;28;1013;-63
2022/07/27 17:04:18;;;;;;;;;;;;;;;27.40;45.59;99117.81;4974601;28;860;-63
2022/07/27 17:06:45;;;;;;;;;;;;;;;27.26;46.04;99121.84;4991937;28;1886;-63
2022/07/27 17:09:12;;;;;;;;;;;;;;;27.13;46.42;99124.56;4992038;28;819;-63
2022/07/27 17:11:38;;;;;;;;;;;;;;;26.95;46.91;99128.88;4991949;28;855;-63
2022/07/27 17:14:05;;;;;;;;;;;;;;;26.79;47.14;99128.53;4992248;28;807;-63
2022/07/27 17:16:32;;;;;;;;;;;;;;;26.68;47.45;99131.50;4995813;28;807;-63
2022/07/27 17:18:59;;;;;;;;;;;;;;;26.55;47.81;99129.28;4995764;28;807;-63
2022/07/27 17:21:25;;;;;;;;;;;;;;;26.41;47.74;99134.03;4995772;28;845;-63
2022/07/27 17:23:52;;;;;;;;;;;;;;;26.30;48.39;99136.97;4995716;28;787;-63
2022/07/27 17:26:19;;;;;;;;;;;;;;;26.20;48.53;99136.56;4995464;28;1886;-63
2022/07/27 17:28:45;;;;;;;;;;;;;;;26.09;49.25;99133.78;4995557;28;839;-63
2022/07/27 17:31:13;;;;;;;;;;;;;;;26.00;49.36;99129.22;4995711;28;851;-63
2022/07/27 17:33:40;;;;;;;;;;;;;;;25.90;49.48;99135.75;4995552;28;1186;-63
2022/07/27 17:36:07;;;;;;;;;;;;;;;25.80;49.91;99136.03;4995445;28;854;-64
2022/07/27 17:38:35;;;;;;;;;;;;;;;25.75;50.12;99138.91;4995366;28;897;-63
2022/07/27 17:41:01;;;;;;;;;;;;;;;25.69;50.24;99141.78;4995497;28;811;-63
2022/07/27 17:43:28;;;;;;;;;;;;;;;25.62;50.36;99143.06;4995340;28;811;-63
2022/07/27 17:45:55;;;;;;;;;;;;;;;25.53;50.53;99145.47;4995516;28;1973;-63
2022/07/27 17:48:21;;;;;;;;;;;;;;;25.43;50.85;99142.16;4995282;28;846;-63
2022/07/27 17:50:48;;;;;;;;;;;;;;;25.34;51.34;99146.06;4995282;28;811;-63
2022/07/27 17:53:14;;;;;;;;;;;;;;;25.26;51.51;99140.19;4977812;28;1304;-63
2022/07/27 17:55:41;;;;;;;;;;;;;;;25.23;51.67;99146.88;4995224;28;851;-63
2022/07/27 17:58:07;;;;;;;;;;;;;;;25.19;51.89;99146.34;4995516;28;851;-63
2022/07/27 18:00:34;;;;;;;;;;;;;;;25.13;52.16;99150.47;4995644;28;745;-63
2022/07/27 18:03:01;;;;;;;;;;;;;;;25.14;52.66;99154.88;4995010;28;810;-62
2022/07/27 18:05:27;;;;;;;;;;;;;;;25.10;52.86;99155.13;4977477;28;1887;-62
2022/07/27 18:07:54;;;;;;;;;;;;;;;25.10;52.81;99165.66;4995286;28;917;-63
2022/07/27 18:10:21;;;;;;;;;;;;;;;25.04;53.12;99169.25;4995095;28;791;-63
2022/07/27 18:12:48;;;;;;;;;;;;;;;24.99;53.18;99172.88;4994785;28;819;-62
2022/07/27 18:17:59;;;;;;;;;;;;;;;24.86;53.75;99170.59;4994734;28;641;-64
2022/07/27 18:20:25;;;;;;;;;;;;;;;24.81;53.97;99159.31;4994614;28;814;-63
2022/07/27 18:22:52;;;;;;;;;;;;;;;24.82;53.85;99175.75;4994645;28;839;-63
2022/07/27 18:25:19;;;;;;;;;;;;;;;24.79;53.54;99185.28;4994615;28;1951;-63
2022/07/27 18:27:47;;;;;;;;;;;;;;;24.73;53.34;99192.97;4993913;28;835;-63
2022/07/27 18:30:13;;;;;;;;;;;;;;;24.70;53.00;99191.16;4994445;28;823;-63
2022/07/27 18:32:39;;;;;;;;;;;;;;;24.62;53.21;99195.78;4994533;28;1007;-63
2022/07/27 18:35:07;;;;;;;;;;;;;;;24.56;53.04;99197.84;4994188;28;1255;-63
2022/07/27 18:37:34;;;;;;;;;;;;;;;24.50;53.19;99189.41;4994253;28;878;-63
2022/07/27 18:40:02;;;;;;;;;;;;;;;24.50;52.56;99191.47;4994329;28;827;-63
2022/07/27 18:42:29;;;;;;;;;;;;;;;24.55;52.06;99199.16;4994211;28;858;-63
2022/07/27 18:44:56;;;;;;;;;;;;;;;24.59;51.67;99206.06;4994109;28;1910;-63
2022/07/27 18:47:22;;;;;;;;;;;;;;;24.57;51.79;99203.00;4994137;28;875;-63
2022/07/27 18:49:49;;;;;;;;;;;;;;;24.54;52.09;99209.69;4994154;28;811;-62
2022/07/27 18:52:15;;;;;;;;;;;;;;;24.50;52.11;99216.88;4993982;28;897;-63
2022/07/27 18:54:42;;;;;;;;;;;;;;;24.48;52.18;99220.19;4993940;28;871;-62
2022/07/27 18:57:09;;;;;;;;;;;;;;;24.43;52.28;99218.09;4993948;28;835;-63
2022/07/27 18:59:35;;;;;;;;;;;;;;;24.35;52.29;99217.88;4993849;28;854;-63
2022/07/27 19:02:02;;;;;;;;;;;;;;;24.35;51.97;99229.16;4993875;28;847;-63
2022/07/27 19:04:29;;;;;;;;;;;;;;;24.32;52.13;99235.81;4993823;28;824;-62
2022/07/27 19:06:56;;;;;;;;;;;;;;;24.28;51.90;99232.47;4993688;28;1894;-63
2022/07/27 19:09:22;;;;;;;;;;;;;;;24.30;51.60;99231.97;4993775;28;851;-62
2022/07/27 19:11:48;;;;;;;;;;;;;;;24.30;51.48;99240.44;4993716;28;847;-63
2022/07/27 19:14:16;;;;;;;;;;;;;;;24.21;51.55;99244.28;4993639;28;858;-63
2022/07/27 19:16:43;;;;;;;;;;;;;;;24.16;51.52;99248.63;4993582;28;866;-63
2022/07/27 19:19:10;;;;;;;;;;;;;;;24.10;51.61;99247.09;4993521;28;852;-63
2022/07/27 19:21:36;;;;;;;;;;;;;;;24.05;51.87;99243.75;4993486;28;865;-63
2022/07/27 19:24:03;;;;;;;;;;;;;;;24.03;51.77;99245.53;4993328;28;882;-63
2022/07/27 19:26:30;;;;;;;;;;;;;;;23.96;51.98;99237.53;4975795;28;1951;-63
2022/07/27 19:28:57;;;;;;;;;;;;;;;23.88;52.34;99244.97;4993417;28;807;-63
2022/07/27 19:31:23;;;;;;;;;;;;;;;23.82;52.32;99245.72;4993286;28;877;-63
2022/07/27 19:33:51;;;;;;;;;;;;;;;23.70;52.45;99248.97;4993445;28;1189;-63
2022/07/27 19:36:18;;;;;;;;;;;;;;;23.56;52.27;99251.50;4993222;28;807;-63
2022/07/27 19:38:45;;;;;;;;;;;;;;;23.46;52.37;99249.38;4992242;28;859;-63
2022/07/27 19:41:12;;;;;;;;;;;;;;;23.41;52.58;99248.09;4993163;28;866;-63
2022/07/27 19:43:38;;;;;;;;;;;;;;;23.41;52.36;99242.44;4975616;28;1474;-63
2022/07/27 19:46:04;;;;;;;;;;;;;;;23.46;51.80;99250.16;4993311;28;1910;-63
2022/07/27 19:48:31;;;;;;;;;;;;;;;23.52;51.55;99250.19;4992984;28;824;-63
2022/07/27 19:50:58;;;;;;;;;;;;;;;23.65;50.71;99256.16;4992918;28;804;-63
2022/07/27 19:53:26;;;;;;;;;;;;;;;23.67;50.55;99264.09;4992827;28;807;-63
2022/07/27 19:55:57;;;;;;;;;;;;;;;23.62;50.88;99262.81;4993152;28;870;-63
2022/07/27 19:58:23;;;;;;;;;;;;;;;23.55;50.53;99264.03;4992825;28;834;-62
2022/07/27 20:00:50;;;;;;;;;;;;;;;23.58;50.33;99270.75;4993156;28;803;-63
2022/07/27 20:03:17;;;;;;;;;;;;;;;23.61;50.01;99278.94;4992771;28;846;-63
2022/07/27 20:05:44;;;;;;;;;;;;;;;23.67;49.74;99281.03;4992659;28;2355;-63
2022/07/27 20:08:11;;;;;;;;;;;;;;;23.68;49.67;99272.03;4992662;28;795;-63
2022/07/27 20:10:38;;;;;;;;;;;;;;;23.63;49.93;99273.56;4992817;28;795;-63
2022/07/27 20:13:05;;;;;;;;;;;;;;;23.60;50.43;99280.22;4992629;28;791;-63
2022/07/27 20:15:32;;;;;;;;;;;;;;;23.62;50.89;99288.97;4975040;28;1278;-63
2022/07/27 20:17:58;;;;;;;;;;;;;;;23.62;51.30;99296.66;4992573;28;886;-63
2022/07/27 20:20:25;;;;;;;;;;;;;;;23.59;51.85;99289.19;4992420;28;819;-63
2022/07/27 20:22:53;;;;;;;;;;;;;;;23.57;52.83;99286.88;4992316;28;811;-63
2022/07/27 20:25:20;;;;;;;;;;;;;;;23.58;53.40;99296.13;4992354;28;1886;-63
2022/07/27 20:27:46;;;;;;;;;;;;;;;23.56;54.14;99296.63;4974914;28;1201;-63
2022/07/27 20:30:16;;;;;;;;;;;;;;;23.57;55.00;99297.38;4992289;28;787;-63
2022/07/27 20:32:43;;;;;;;;;;;;;;;23.56;55.79;99290.22;4992428;28;901;-63
2022/07/27 20:35:10;;;;;;;;;;;;;;;23.56;56.01;99298.66;4992094;28;1255;-63
2022/07/27 20:37:37;;;;;;;;;;;;;;;23.57;56.52;99297.38;4992488;28;854;-63
2022/07/27 20:40:04;;;;;;;;;;;;;;;23.53;57.23;99303.25;4992206;28;828;-63
2022/07/27 20:42:31;;;;;;;;;;;;;;;23.50;58.08;99309.16;4992234;28;851;-63
2022/07/27 20:44:57;;;;;;;;;;;;;;;23.49;58.47;99302.72;4992008;28;1906;-63
2022/07/27 20:47:23;;;;;;;;;;;;;;;23.43;59.12;99305.53;4992350;28;840;-62
2022/07/27 20:49:49;;;;;;;;;;;;;;;23.33;59.35;99307.00;4995450;28;815;-63
2022/07/27 20:52:16;;;;;;;;;;;;;;;23.22;59.99;99307.69;4998959;28;815;-63
2022/07/27 20:54:43;;;;;;;;;;;;;;;23.22;60.81;99318.19;4998461;28;847;-63
2022/07/27 20:57:10;;;;;;;;;;;;;;;23.14;60.71;99314.28;4998607;28;795;-63
2022/07/27 20:59:36;;;;;;;;;;;;;;;23.06;61.38;99318.84;4981003;28;1162;-63
2022/07/27 21:02:06;;;;;;;;;;;;;;;22.93;62.19;99313.59;4998508;28;812;-63
2022/07/27 21:04:33;;;;;;;;;;;;;;;22.81;62.80;99321.19;4998512;28;874;-63
2022/07/27 21:06:59;;;;;;;;;;;;;;;22.67;63.25;99328.47;4998416;28;1886;-63
2022/07/27 21:09:25;;;;;;;;;;;;;;;22.57;63.86;99339.13;4998522;28;843;-63
2022/07/27 21:11:52;;;;;;;;;;;;;;;22.52;64.42;99334.22;4998559;28;795;-63
2022/07/27 21:14:18;;;;;;;;;;;;;;;22.43;65.04;99337.19;4998475;28;887;-63
2022/07/27 21:16:45;;;;;;;;;;;;;;;22.37;65.51;99336.38;4998393;28;847;-62
2022/07/27 21:19:11;;;;;;;;;;;;;;;22.32;66.18;99335.03;4998395;28;891;-63
2022/07/27 21:21:38;;;;;;;;;;;;;;;22.29;66.68;99335.25;4998355;28;788;-63
2022/07/27 21:24:13;;;;;;;;;;;;;;;22.28;66.99;99339.34;4998395;28;905;-63
2022/07/27 21:26:41;;;;;;;;;;;;;;;22.24;67.61;99339.56;4998242;28;1952;-63
2022/07/27 21:29:08;;;;;;;;;;;;;;;22.21;68.14;99334.88;4998271;28;795;-64
2022/07/27 21:31:35;;;;;;;;;;;;;;;22.15;68.69;99337.63;4998619;28;808;-63
2022/07/27 21:34:01;;;;;;;;;;;;;;;22.04;69.10;99348.75;4998363;28;1279;-63
2022/07/27 21:36:28;;;;;;;;;;;;;;;21.93;69.39;99346.56;4998233;28;815;-63
2022/07/27 21:38:54;;;;;;;;;;;;;;;21.86;69.65;99349.03;4998255;28;850;-63
2022/07/27 21:41:21;;;;;;;;;;;;;;;21.81;69.92;99351.28;4998189;28;844;-63
2022/07/27 21:43:47;;;;;;;;;;;;;;;21.77;70.20;99352.75;4998139;28;812;-63
2022/07/27 21:46:15;;;;;;;;;;;;;;;21.69;70.43;99352.38;4998444;28;1918;-63
2022/07/27 21:48:42;;;;;;;;;;;;;;;21.58;70.72;99352.25;4998104;28;839;-63
2022/07/27 21:51:08;;;;;;;;;;;;;;;21.46;71.40;99356.91;4998088;28;838;-63
2022/07/27 21:53:35;;;;;;;;;;;;;;;21.39;71.76;99360.88;4998182;28;862;-63
2022/07/27 21:56:04;;;;;;;;;;;;;;;21.36;72.28;99366.72;4998084;28;818;-63
2022/07/27 21:58:31;;;;;;;;;;;;;;;21.33;72.58;99362.81;4998016;28;870;-63
2022/07/27 22:00:57;;;;;;;;;;;;;;;21.33;72.43;99362.81;4996033;28;803;-63
2022/07/27 22:03:24;;;;;;;;;;;;;;;21.30;72.56;99372.25;4994932;28;851;-63
2022/07/27 22:05:50;;;;;;;;;;;;;;;21.26;72.88;99365.28;4977422;28;2242;-63
2022/07/27 22:08:17;;;;;;;;;;;;;;;21.18;73.00;99368.47;4995055;28;835;-63
2022/07/27 22:10:43;;;;;;;;;;;;;;;21.11;73.20;99365.28;4994868;28;811;-63
2022/07/27 22:13:10;;;;;;;;;;;;;;;21.02;73.40;99371.78;4994795;28;835;-63
2022/07/27 22:15:36;;;;;;;;;;;;;;;20.96;73.83;99368.88;4994752;28;803;-63
2022/07/27 22:18:03;;;;;;;;;;;;;;;20.92;74.03;99362.69;4994795;28;889;-63
2022/07/27 22:20:30;;;;;;;;;;;;;;;20.90;73.95;99358.81;4994638;28;894;-63
2022/07/27 22:22:57;;;;;;;;;;;;;;;20.85;73.71;99357.47;4994809;28;894;-63
2022/07/27 22:25:24;;;;;;;;;;;;;;;20.85;73.64;99359.50;4994523;28;1964;-63
2022/07/27 22:27:50;;;;;;;;;;;;;;;20.78;73.54;99358.63;4994516;28;819;-63
2022/07/27 22:30:17;;;;;;;;;;;;;;;20.75;73.64;99362.38;4994455;28;910;-63
2022/07/27 22:32:43;;;;;;;;;;;;;;;20.74;73.72;99362.84;4994518;28;895;-63
2022/07/27 22:35:10;;;;;;;;;;;;;;;20.71;73.51;99375.06;4994337;28;1275;-63
2022/07/27 22:37:36;;;;;;;;;;;;;;;20.65;73.62;99365.75;4994376;28;827;-63
2022/07/27 22:40:03;;;;;;;;;;;;;;;20.61;73.50;99365.94;4994278;28;849;-63
2022/07/27 22:42:31;;;;;;;;;;;;;;;20.56;73.63;99361.75;4994288;28;827;-63
2022/07/27 22:44:58;;;;;;;;;;;;;;;20.49;73.70;99370.56;4994302;28;1902;-62
2022/07/27 22:47:25;;;;;;;;;;;;;;;20.45;73.92;99367.16;4994155;28;831;-63
2022/07/27 22:49:51;;;;;;;;;;;;;;;20.47;73.86;99364.66;4994463;28;811;-63
2022/07/27 22:52:18;;;;;;;;;;;;;;;20.46;73.80;99367.94;4993935;28;851;-63
2022/07/27 22:54:45;;;;;;;;;;;;;;;20.49;73.62;99366.97;4994097;28;890;-63
2022/07/27 22:57:12;;;;;;;;;;;;;;;20.50;73.38;99352.44;4976500;28;1194;-63
2022/07/27 22:59:39;;;;;;;;;;;;;;;20.50;73.04;99358.06;4994119;28;857;-63
2022/07/27 23:02:06;;;;;;;;;;;;;;;20.45;73.01;99355.94;4994190;28;858;-63
2022/07/27 23:04:33;;;;;;;;;;;;;;;20.39;73.10;99355.81;4976363;28;1326;-63
2022/07/27 23:06:59;;;;;;;;;;;;;;;20.37;73.10;99360.38;4993721;28;1941;-63
2022/07/27 23:09:25;;;;;;;;;;;;;;;20.35;72.91;99357.25;4993770;28;819;-63
2022/07/27 23:11:52;;;;;;;;;;;;;;;20.38;72.50;99354.28;4993542;28;827;-63
2022/07/27 23:14:19;;;;;;;;;;;;;;;20.39;72.24;99357.84;4993597;28;776;-63
2022/07/27 23:16:45;;;;;;;;;;;;;;;20.41;72.15;99355.34;4993691;28;902;-63
2022/07/27 23:19:12;;;;;;;;;;;;;;;20.45;71.96;99357.97;4993507;28;839;-63
2022/07/27 23:21:39;;;;;;;;;;;;;;;20.56;71.57;99352.56;4993414;28;851;-63
2022/07/27 23:24:05;;;;;;;;;;;;;;;20.69;71.03;99350.28;4993490;28;807;-63
2022/07/27 23:26:33;;;;;;;;;;;;;;;20.82;70.51;99349.22;4993366;28;1947;-63
2022/07/27 23:28:59;;;;;;;;;;;;;;;20.89;70.18;99348.81;4993383;28;820;-63
2022/07/27 23:31:25;;;;;;;;;;;;;;;20.94;69.80;99346.13;4993328;28;863;-63
2022/07/27 23:33:52;;;;;;;;;;;;;;;21.01;69.29;99354.13;4993457;28;1227;-63
2022/07/27 23:36:19;;;;;;;;;;;;;;;21.03;69.01;99348.03;4993278;28;835;-63
2022/07/27 23:38:45;;;;;;;;;;;;;;;21.09;68.60;99348.91;4993234;28;869;-63
2022/07/27 23:41:12;;;;;;;;;;;;;;;21.12;67.78;99345.16;4993447;28;939;-63
2022/07/27 23:43:38;;;;;;;;;;;;;;;21.13;67.28;99351.53;4993148;28;885;-63
2022/07/27 23:46:05;;;;;;;;;;;;;;;21.16;66.99;99344.94;4993062;28;1942;-63
2022/07/27 23:48:31;;;;;;;;;;;;;;;21.16;66.88;99356.16;4993078;28;811;-63
2022/07/27 23:50:58;;;;;;;;;;;;;;;21.14;66.90;99348.22;4992899;28;1068;-63
2022/07/27 23:53:25;;;;;;;;;;;;;;;21.13;66.79;99355.09;4993195;28;883;-63
2022/07/27 23:55:51;;;;;;;;;;;;;;;21.17;66.08;99352.88;4975529;28;1304;-63
2022/07/27 23:58:18;;;;;;;;;;;;;;;21.18;65.63;99345.97;4992954;28;812;-63
